GCXO/TFN METAR and TAF weather

Enter ICAO airport designator
Station Type Date Time Source
GCXO METAR 2018/10/16 21:30 UTC NOAA

GCXO 162130Z 30015KT 9999 FEW010 SCT015 17/15 Q1022 NOSIG


Station Type Date Time Source
GCXO Decoded METAR 2018/10/16 21:30 UTC NOAA

Tenerife / Los Rodeos, Spain (GCXO) 28-28N 016-19W 617M
Oct 16, 2018 - 05:30 PM EDT / 2018.10.16 2130 UTC
Wind: from the WNW (300 degrees) at 17 MPH (15 KT):0
Visibility: greater than 7 mile(s):0
Sky conditions: partly cloudy
Temperature: 62 F (17 C)
Dew Point: 59 F (15 C)
Relative Humidity: 88%
Pressure (altimeter): 30.18 in. Hg (1022 hPa)
ob: GCXO 162130Z 30015KT 9999 FEW010 SCT015 17/15 Q1022 NOSIG
cycle: 21

Station Type Date Time Source
GCXO TAF 2018/10/16 21:27 UTC NOAA

TAF GCXO 162000Z 1621/1721 31011KT 9999 BKN015 TX22/1715Z TN16/1705Z PROB30
TEMPO 1621/1708 4900 BR BKN007 PROB30
TEMPO 1624/1706 DZ


Example: see airport list